Time;durP1;ratioP1;P1;durP2;ratioP2;P2;SDS_P1;SDS_P2;PMS_P1;PMS_P2;Temp;Humidity;BMP_temperature;BMP_pressure;BME280_temperature;BME280_humidity;BME280_pressure;Samples;Min_cycle;Max_cycle;Signal;HPM_P1;HPM_P2
2023/06/16 07:23:16;;;;;;;8.30;5.97;;;;;;;-145.79;35.84;77021.19;5301337;27;20676;-66
2023/06/16 07:25:47;;;;;;;9.93;6.53;;;;;;;-145.79;36.22;77006.34;5300825;28;20110;-67
2023/06/16 07:28:19;;;;;;;9.93;5.93;;;;;;;-145.79;36.18;76993.63;5301016;28;20024;-67
2023/06/16 07:30:52;;;;;;;9.30;6.50;;;;;;;-145.79;35.36;76993.63;5299872;28;20518;-67
2023/06/16 07:33:23;;;;;;;271.13;243.77;;;;;;;-145.79;35.40;76983.03;5293455;28;20794;-67
2023/06/16 07:35:54;;;;;;;20.50;15.80;;;;;;;-145.79;36.04;76968.22;5288436;28;20111;-67
2023/06/16 07:38:26;;;;;;;11.50;6.97;;;;;;;-145.79;34.44;76961.84;5297308;28;20016;-66
2023/06/16 07:40:57;;;;;;;9.60;6.35;;;;;;;-145.79;35.52;76944.91;5297924;28;20568;-67
2023/06/16 07:43:28;;;;;;;7.13;5.88;;;;;;;-145.79;35.06;76940.66;5298580;28;20100;-67
2023/06/16 07:46:00;;;;;;;8.50;6.25;;;;;;;-145.79;34.98;76944.91;5299174;28;20044;-67
2023/06/16 07:48:31;;;;;;;8.43;6.10;;;;;;;-145.79;35.16;76925.81;5284201;28;20025;-67
2023/06/16 07:51:03;;;;;;;6.95;5.93;;;;;;;-145.79;34.97;76919.47;5277414;28;20040;-66
2023/06/16 07:53:34;;;;;;;8.07;5.47;;;;;;;-145.79;34.00;76908.88;5295440;28;20063;-67
2023/06/16 07:56:06;;;;;;;5.50;5.00;;;;;;;-145.79;35.65;76887.66;5299256;28;20425;-67
2023/06/16 07:58:38;;;;;;;6.40;5.30;;;;;;;-145.79;34.76;76896.16;5298383;28;20080;-67
2023/06/16 08:01:09;;;;;;;11.10;8.77;;;;;;;-145.79;34.52;76896.16;5298879;28;20036;-67
2023/06/16 08:03:46;;;;;;;10.25;9.02;;;;;;;-145.79;33.69;76885.56;5298988;28;20224;-67
2023/06/16 08:06:17;;;;;;;6.25;4.95;;;;;;;-145.79;34.38;76870.72;5298084;28;20053;-67
2023/06/16 08:08:49;;;;;;;7.68;5.15;;;;;;;-145.79;34.35;76870.72;5298729;28;20123;-66
2023/06/16 08:11:20;;;;;;;7.80;5.55;;;;;;;-145.79;34.65;76841.03;5297496;28;20656;-67
2023/06/16 08:13:52;;;;;;;8.27;5.15;;;;;;;-145.79;34.50;76832.56;5285145;28;20020;-65
2023/06/16 08:16:23;;;;;;;8.50;5.78;;;;;;;-145.79;34.23;76838.94;5276535;28;20207;-65
2023/06/16 08:18:56;;;;;;;7.07;5.22;;;;;;;-145.79;32.90;76834.69;5293540;28;20107;-65
2023/06/16 08:21:27;;;;;;;5.97;5.30;;;;;;;-145.79;32.94;76830.44;5303532;28;20044;-65
2023/06/16 08:23:59;;;;;;;6.47;5.38;;;;;;;-145.79;32.72;76817.72;5317635;28;20526;-66
2023/06/16 08:26:33;;;;;;;10.18;4.90;;;;;;;-145.79;32.65;76813.50;5318014;28;20028;-66
2023/06/16 08:29:04;;;;;;;9.90;4.90;;;;;;;-145.79;32.45;76813.50;5313765;28;20039;-65
2023/06/16 08:31:36;;;;;;;8.43;5.03;;;;;;;-145.79;32.07;76809.25;5312301;28;20024;-65
2023/06/16 08:34:07;;;;;;;5.53;4.47;;;;;;;-145.79;32.54;76788.06;5306298;28;20101;-66
2023/06/16 08:36:38;;;;;;;13.75;12.05;;;;;;;-145.79;32.06;76775.34;5304681;28;20024;-65
2023/06/16 08:39:10;;;;;;;7.55;5.00;;;;;;;-145.79;31.56;76754.16;5303321;28;20332;-65
2023/06/16 08:41:41;;;;;;;8.35;4.50;;;;;;;-145.79;31.80;76747.78;5302106;28;20662;-66
2023/06/16 08:44:16;;;;;;;9.05;4.40;;;;;;;-145.79;30.84;76747.78;5299228;28;20115;-67
2023/06/16 08:46:51;;;;;;;10.25;4.90;;;;;;;-145.79;31.96;76730.84;5304823;28;20032;-67
2023/06/16 08:49:24;;;;;;;6.68;4.20;;;;;;;-145.79;30.99;76724.47;5292226;28;20116;-66
2023/06/16 08:51:56;;;;;;;5.85;4.35;;;;;;;-145.79;30.95;76726.59;5293731;28;20023;-67
2023/06/16 08:54:33;;;;;;;5.93;4.25;;;;;;;-145.79;31.05;76739.31;5297182;28;20471;-66
2023/06/16 08:57:09;;;;;;;7.60;4.53;;;;;;;-145.79;31.05;76711.75;5293447;28;20031;-66
2023/06/16 08:59:45;;;;;;;5.88;4.20;;;;;;;-145.79;31.33;76699.06;5298762;28;20028;-66
2023/06/16 09:02:17;;;;;;;4.10;3.70;;;;;;;-145.79;30.96;76690.56;5294205;28;20028;-67
2023/06/16 09:04:50;;;;;;;6.47;5.10;;;;;;;-145.79;30.51;76694.81;5298310;28;20030;-67
2023/06/16 09:07:28;;;;;;;5.20;4.70;;;;;;;-145.79;30.87;76694.81;5297224;28;20032;-67
2023/06/16 09:09:59;;;;;;;4.70;3.95;;;;;;;-145.79;30.30;76677.84;5292097;28;20028;-66
2023/06/16 09:12:30;;;;;;;7.10;4.65;;;;;;;-145.79;30.67;76686.34;5303302;28;20043;-68
2023/06/16 09:15:11;;;;;;;7.05;3.92;;;;;;;-145.79;30.65;76677.84;5296200;28;20490;-67
2023/06/16 09:17:42;;;;;;;4.88;4.38;;;;;;;-145.79;30.93;76677.84;5283662;28;20024;-68
2023/06/16 09:20:15;;;;;;;6.60;5.90;;;;;;;-145.79;30.48;76660.91;5295574;28;20020;-67
2023/06/16 09:22:59;;;;;;;7.05;4.55;;;;;;;-145.79;30.68;76656.66;5293718;28;20047;-67
2023/06/16 09:25:34;;;;;;;5.50;4.50;;;;;;;-145.79;30.28;76660.91;5298101;28;20426;-67
2023/06/16 09:28:10;;;;;;;4.93;4.10;;;;;;;-145.79;30.81;76648.19;5282950;28;20340;-67
2023/06/16 09:30:41;;;;;;;5.50;4.32;;;;;;;-145.79;30.13;76665.16;5311671;28;20081;-67
2023/06/16 09:33:12;;;;;;;6.70;3.75;;;;;;;-145.79;30.22;76652.44;5303174;28;20032;-67
2023/06/16 09:35:44;;;;;;;8.02;4.80;;;;;;;-145.79;30.53;76639.72;5302594;28;20031;-68
2023/06/16 09:38:18;;;;;;;7.03;4.05;;;;;;;-145.79;30.75;76629.13;5302390;28;20034;-66
2023/06/16 09:40:49;;;;;;;6.47;4.75;;;;;;;-145.79;30.00;76627.00;5301960;28;20046;-67
2023/06/16 09:43:21;;;;;;;5.90;4.35;;;;;;;-145.79;29.45;76601.56;5299053;28;20024;-67
2023/06/16 09:45:57;;;;;;;6.88;4.43;;;;;;;-145.79;29.70;76584.59;5293592;28;20352;-66
2023/06/16 09:48:34;;;;;;;5.15;3.85;;;;;;;-145.79;29.47;76597.31;5303347;28;20016;-67
2023/06/16 09:51:18;;;;;;;6.30;4.63;;;;;;;-145.79;29.97;76586.72;5302297;28;20073;-67
2023/06/16 09:53:51;;;;;;;4.30;3.90;;;;;;;-145.79;30.01;76584.59;5292535;28;20068;-67
2023/06/16 09:56:23;;;;;;;7.53;6.10;;;;;;;-145.79;29.39;76561.28;5290912;28;20047;-66
2023/06/16 09:58:54;;;;;;;5.78;4.20;;;;;;;-145.79;28.88;76565.53;5294692;28;20386;-67
2023/06/16 10:01:26;;;;;;;7.88;3.92;;;;;;;-145.79;29.51;76563.41;5287201;28;20031;-66
2023/06/16 10:03:58;;;;;;;5.68;3.95;;;;;;;-145.79;29.29;76559.19;5293572;28;20471;-67
2023/06/16 10:06:31;;;;;;;6.05;4.07;;;;;;;-145.79;28.78;76540.09;5286748;28;20570;-67
2023/06/16 10:09:02;;;;;;;4.93;3.83;;;;;;;-145.79;28.49;76557.06;5300853;28;20088;-67
2023/06/16 10:11:34;;;;;;;4.45;3.80;;;;;;;-145.79;28.50;76550.69;5300642;28;20039;-69
2023/06/16 10:14:08;;;;;;;5.55;3.50;;;;;;;-145.79;28.99;76531.63;5301104;28;20031;-66
2023/06/16 10:16:41;;;;;;;9.02;7.30;;;;;;;-145.79;28.45;76516.78;5301365;28;20035;-68
2023/06/16 10:19:13;;;;;;;4.35;3.85;;;;;;;-145.79;28.11;76504.09;5300210;28;20035;-67
2023/06/16 10:21:44;;;;;;;4.13;3.67;;;;;;;-145.79;28.29;76518.91;5300431;28;20486;-67
2023/06/16 10:24:16;;;;;;;4.25;3.47;;;;;;;-145.79;27.80;76510.44;5300699;28;20016;-66
2023/06/16 10:26:49;;;;;;;4.97;4.10;;;;;;;-145.79;28.11;76523.16;5300992;28;20458;-68
2023/06/16 10:29:21;;;;;;;4.30;3.45;;;;;;;-145.79;28.62;76506.19;5301761;28;20034;-66
2023/06/16 10:32:08;;;;;;;6.25;4.18;;;;;;;-145.79;27.52;76491.38;5301535;28;20028;-68
2023/06/16 10:34:51;;;;;;;4.15;3.53;;;;;;;-145.79;27.80;76493.50;5302551;28;20032;-67
2023/06/16 10:37:24;;;;;;;4.30;3.90;;;;;;;-145.79;28.02;76499.84;5302813;28;20072;-66
2023/06/16 10:39:56;;;;;;;5.78;4.30;;;;;;;-145.79;28.40;76489.25;5301991;28;20111;-67
2023/06/16 10:42:34;;;;;;;4.53;3.90;;;;;;;-145.79;28.48;76480.78;5300101;28;20459;-67
2023/06/16 10:45:28;;;;;;;4.40;3.92;;;;;;;-145.79;28.06;76457.47;5292584;28;20435;-67
2023/06/16 10:48:03;;;;;;;6.25;3.75;;;;;;;-145.79;27.74;76480.78;5301651;28;20028;-66
2023/06/16 10:50:38;;;;;;;6.07;3.70;;;;;;;-145.79;27.44;76489.25;5284786;28;20032;-67
2023/06/16 10:53:14;;;;;;;4.53;3.40;;;;;;;-145.79;27.85;76482.88;5302110;28;20039;-67
2023/06/16 10:56:01;;;;;;;4.65;4.10;;;;;;;-145.79;28.02;76468.06;5302486;28;20124;-67
2023/06/16 10:58:32;;;;;;;6.93;3.55;;;;;;;-145.79;27.71;76432.03;5302204;28;20117;-67
2023/06/16 11:01:20;;;;;;;8.88;8.07;;;;;;;-145.79;27.62;76423.56;5301797;28;20201;-66
2023/06/16 11:04:01;;;;;;;5.97;3.53;;;;;;;-145.79;27.53;76412.97;5302516;28;20032;-67
2023/06/16 11:07:04;;;;;;;5.15;4.07;;;;;;;-145.79;27.27;76415.06;5301918;28;20038;-68
2023/06/16 11:09:36;;;;;;;7.60;3.75;;;;;;;-145.79;27.04;76423.56;5299900;28;20063;-67
2023/06/16 11:12:07;;;;;;;4.65;3.55;;;;;;;-145.79;26.94;76415.06;5302817;28;20102;-68
2023/06/16 11:14:39;;;;;;;6.15;3.95;;;;;;;-145.79;26.97;76421.44;5300677;28;20534;-68
2023/06/16 11:17:13;;;;;;;6.57;4.15;;;;;;;-145.79;26.91;76421.44;5295285;28;20058;-68
2023/06/16 11:19:50;;;;;;;5.50;3.70;;;;;;;-145.79;27.10;76438.38;5302236;28;20032;-67
2023/06/16 11:22:33;;;;;;;4.97;3.85;;;;;;;-145.79;27.52;76429.91;5300711;28;20061;-67
2023/06/16 11:25:05;;;;;;;5.38;3.80;;;;;;;-145.79;27.60;76402.38;5301532;28;20036;-69
2023/06/16 11:27:38;;;;;;;4.22;3.50;;;;;;;-145.79;27.50;76385.41;5300725;28;20035;-65
2023/06/16 11:30:13;;;;;;;6.13;3.70;;;;;;;-145.79;27.35;76359.97;5301485;28;20103;-67
2023/06/16 11:32:47;;;;;;;5.25;4.07;;;;;;;-145.79;26.93;76381.16;5302270;28;20526;-69
2023/06/16 11:35:18;;;;;;;7.88;4.60;;;;;;;-145.79;26.68;76379.06;5301408;28;20391;-67
2023/06/16 11:37:54;;;;;;;4.30;3.90;;;;;;;-145.79;26.53;76374.81;5301804;28;20089;-68
2023/06/16 11:40:28;;;;;;;4.10;3.60;;;;;;;-145.79;26.45;76406.59;5299900;28;20063;-68
2023/06/16 11:43:01;;;;;;;4.38;3.88;;;;;;;-145.79;26.57;76364.22;5300554;28;20046;-67
2023/06/16 11:45:39;;;;;;;5.28;4.78;;;;;;;-145.79;26.60;76357.84;5301696;28;20036;-68
2023/06/16 11:48:11;;;;;;;11.40;9.40;;;;;;;-145.79;26.95;76347.25;5301574;28;20020;-68
2023/06/16 11:50:45;;;;;;;8.23;7.03;;;;;;;-145.79;26.59;76307.00;5301153;28;20031;-68
2023/06/16 11:53:19;;;;;;;19.42;17.55;;;;;;;-145.79;26.39;76313.34;5301515;28;20048;-67
2023/06/16 11:55:51;;;;;;;5.28;4.15;;;;;;;-145.79;26.84;76296.41;5301885;28;20036;-68
2023/06/16 11:58:24;;;;;;;5.82;4.45;;;;;;;-145.79;26.62;76300.66;5301062;28;20073;-67
2023/06/16 12:01:00;;;;;;;10.82;4.57;;;;;;;-145.79;26.47;76309.13;5296558;28;20193;-68
2023/06/16 12:03:35;;;;;;;5.65;3.80;;;;;;;-145.79;26.53;76304.88;5301137;28;20052;-69
2023/06/16 12:06:08;;;;;;;3.83;3.53;;;;;;;-145.79;26.71;76294.28;5302255;28;20028;-68
2023/06/16 12:08:41;;;;;;;4.05;3.75;;;;;;;-145.79;26.93;76294.28;5303310;28;20395;-70
2023/06/16 12:11:18;;;;;;;4.47;4.00;;;;;;;-145.79;26.58;76273.09;5305207;28;20039;-66
2023/06/16 12:13:51;;;;;;;4.20;3.80;;;;;;;-145.79;26.45;76277.34;5306209;28;20117;-65
2023/06/16 12:16:22;;;;;;;6.03;3.80;;;;;;;-145.79;26.40;76266.75;5305645;28;20107;-67
2023/06/16 12:18:56;;;;;;;6.72;3.90;;;;;;;-145.79;26.57;76254.03;5305062;28;20115;-68
2023/06/16 12:21:28;;;;;;;6.40;4.40;;;;;;;-145.79;26.78;76234.97;5304430;28;20078;-67
2023/06/16 12:24:00;;;;;;;5.60;4.35;;;;;;;-145.79;26.58;76258.25;5305920;28;20024;-66
2023/06/16 12:26:43;;;;;;;7.32;4.82;;;;;;;-145.79;27.25;76245.56;5302224;28;20024;-70
2023/06/16 12:29:16;;;;;;;4.28;3.88;;;;;;;-145.79;26.55;76237.06;5305634;28;20042;-68
2023/06/16 12:31:59;;;;;;;5.15;4.60;;;;;;;-145.79;26.95;76198.94;5290706;28;20095;-68
2023/06/16 12:34:33;;;;;;;4.80;4.30;;;;;;;-145.79;27.10;76184.09;5284588;28;20128;-68
2023/06/16 12:37:10;;;;;;;7.57;4.15;;;;;;;-145.79;26.88;76190.47;5266635;28;20132;-68
2023/06/16 12:39:55;;;;;;;4.78;4.32;;;;;;;-145.79;26.81;76186.22;5283671;28;20510;-67
2023/06/16 12:42:30;;;;;;;8.05;7.25;;;;;;;-145.79;26.37;76181.97;5285321;28;20048;-68
2023/06/16 12:45:03;;;;;;;;;;;;;;;-145.79;26.34;76167.16;5305415;28;20483;-68
2023/06/16 12:47:35;;;;;;;4.68;4.10;;;;;;;-145.79;26.24;76177.75;5304540;28;19916;-68
2023/06/16 12:50:07;;;;;;;5.82;4.25;;;;;;;-145.79;26.08;76184.09;5304961;28;20027;-68
2023/06/16 12:52:38;;;;;;;4.68;3.60;;;;;;;-145.79;26.15;76213.75;5304413;28;20062;-68
2023/06/16 12:55:12;;;;;;;5.20;3.75;;;;;;;-145.79;26.50;76194.69;5304928;28;20021;-68
2023/06/16 12:57:43;;;;;;;4.57;4.18;;;;;;;-145.79;26.07;76169.25;5305057;28;20052;-66
2023/06/16 13:00:16;;;;;;;6.10;3.97;;;;;;;-145.79;26.25;76135.38;5303980;28;20028;-67
2023/06/16 13:02:47;;;;;;;4.72;4.32;;;;;;;-145.79;25.97;76131.13;5304513;28;20028;-67
2023/06/16 13:05:20;;;;;;;5.43;4.03;;;;;;;-145.79;26.04;76137.47;5304994;28;20046;-67
2023/06/16 13:07:53;;;;;;;7.68;3.72;;;;;;;-145.79;25.54;76126.88;5304175;28;20402;-67
2023/06/16 13:10:24;;;;;;;6.00;4.28;;;;;;;-145.79;26.24;76114.19;5304824;28;20031;-68
2023/06/16 13:12:58;;;;;;;4.80;4.40;;;;;;;-145.79;25.32;76112.06;5304988;28;20020;-68
2023/06/16 13:15:30;;;;;;;4.45;3.95;;;;;;;-145.79;25.72;76122.66;5285334;28;20028;-68
2023/06/16 13:18:03;;;;;;;4.32;3.80;;;;;;;-145.79;25.79;76097.22;5304590;28;20080;-68
2023/06/16 13:20:38;;;;;;;4.82;3.72;;;;;;;-145.79;25.67;76076.03;5303822;28;20047;-67
2023/06/16 13:23:10;;;;;;;5.10;3.90;;;;;;;-145.79;25.32;76101.47;5304547;28;20519;-68
2023/06/16 13:25:41;;;;;;;7.60;3.78;;;;;;;-145.79;25.37;76061.19;5304375;28;20024;-67
2023/06/16 13:28:12;;;;;;;4.60;3.83;;;;;;;-145.79;25.72;76042.13;5303630;28;20024;-68
2023/06/16 13:30:43;;;;;;;8.38;5.22;;;;;;;-145.79;25.44;76037.88;5304614;28;20139;-67
2023/06/16 13:33:15;;;;;;;6.00;4.13;;;;;;;-145.79;25.29;76080.28;5304154;28;20103;-67
2023/06/16 13:35:46;;;;;;;4.63;4.22;;;;;;;-145.79;25.60;76073.91;5303622;28;20428;-67
2023/06/16 13:38:17;;;;;;;6.47;4.03;;;;;;;-145.79;25.74;76061.19;5304313;28;20028;-67
2023/06/16 13:40:49;;;;;;;6.18;4.45;;;;;;;-145.79;25.90;76059.09;5304153;28;20035;-67
2023/06/16 13:43:22;;;;;;;6.45;4.20;;;;;;;-145.79;25.83;76025.19;5303246;28;20428;-68
2023/06/16 13:45:54;;;;;;;5.25;4.20;;;;;;;-145.79;25.91;76029.41;5303683;28;20024;-69
2023/06/16 13:48:25;;;;;;;5.75;3.80;;;;;;;-145.79;25.40;76040.00;5303865;28;20031;-67
2023/06/16 13:50:57;;;;;;;4.43;4.03;;;;;;;-145.79;25.42;76025.19;5302911;28;20119;-66
2023/06/16 13:53:29;;;;;;;5.03;4.30;;;;;;;-145.79;25.82;76037.88;5303418;28;20467;-67
2023/06/16 13:56:00;;;;;;;5.13;4.13;;;;;;;-145.79;25.88;76020.94;5303040;28;20421;-66
2023/06/16 13:58:32;;;;;;;5.10;4.15;;;;;;;-145.79;25.85;76067.56;5303773;28;20032;-67
2023/06/16 14:01:04;;;;;;;4.47;4.10;;;;;;;-145.79;26.22;76006.09;5303296;28;20032;-69
2023/06/16 14:03:38;;;;;;;5.00;3.92;;;;;;;-145.79;26.20;75970.09;5302650;28;20031;-69
2023/06/16 14:06:10;;;;;;;7.30;3.97;;;;;;;-145.79;25.99;75957.38;5303870;28;20099;-69
2023/06/16 14:08:41;;;;;;;5.60;3.78;;;;;;;-145.79;26.11;75923.47;5303623;28;20111;-69
2023/06/16 14:11:12;;;;;;;5.82;4.63;;;;;;;-145.79;25.96;75936.19;5303027;28;20020;-69
2023/06/16 14:13:44;;;;;;;4.82;4.38;;;;;;;-145.79;26.19;75938.31;5303353;28;20040;-68
2023/06/16 14:16:16;;;;;;;4.68;4.28;;;;;;;-145.79;25.67;75940.41;5302914;28;20047;-71
2023/06/16 14:18:47;;;;;;;4.72;4.32;;;;;;;-145.79;25.57;75944.66;5302737;28;20538;-68
2023/06/16 14:21:18;;;;;;;5.28;4.78;;;;;;;-145.79;25.95;75902.28;5303167;28;20245;-68
2023/06/16 14:23:51;;;;;;;6.57;5.60;;;;;;;-145.79;25.42;75921.34;5302849;28;20059;-67
2023/06/16 14:26:22;;;;;;;11.57;5.32;;;;;;;-145.79;25.34;75931.94;5303230;28;20047;-68
2023/06/16 14:28:54;;;;;;;5.03;4.53;;;;;;;-145.79;25.54;75931.94;5302833;28;20032;-68
2023/06/16 14:31:26;;;;;;;5.88;5.28;;;;;;;-145.79;25.45;75923.47;5302232;28;20483;-69
2023/06/16 14:33:57;;;;;;;49.72;45.25;;;;;;;-145.79;25.39;75940.41;5303096;28;20055;-69
2023/06/16 14:36:29;;;;;;;6.88;6.07;;;;;;;-145.79;25.60;75906.53;5303176;28;20043;-69
2023/06/16 14:39:01;;;;;;;4.30;3.90;;;;;;;-145.79;25.33;75927.72;5301937;28;20065;-69
2023/06/16 14:41:36;;;;;;;8.95;4.13;;;;;;;-145.79;25.63;75915.00;5303018;28;20520;-70
2023/06/16 14:44:07;;;;;;;5.25;4.38;;;;;;;-145.79;25.57;75912.88;5302671;28;20058;-70
2023/06/16 14:46:41;;;;;;;4.75;3.72;;;;;;;-145.79;25.38;75921.34;5301922;28;20020;-69
2023/06/16 14:49:12;;;;;;;8.25;6.30;;;;;;;-145.79;25.16;75921.34;5302729;28;20039;-68
2023/06/16 14:51:44;;;;;;;6.22;5.65;;;;;;;-145.79;25.34;75900.16;5302460;28;20089;-68
2023/06/16 14:54:16;;;;;;;7.20;4.35;;;;;;;-145.79;25.51;75919.22;5302054;28;20425;-69
2023/06/16 14:56:48;;;;;;;4.80;4.40;;;;;;;-145.79;25.49;75921.34;5302795;28;20382;-69
2023/06/16 14:59:23;;;;;;;5.10;4.70;;;;;;;-145.79;25.43;75936.19;5301573;28;20378;-69
2023/06/16 15:01:55;;;;;;;6.97;4.93;;;;;;;-145.79;25.52;75938.31;5282782;28;20033;-70
2023/06/16 15:04:26;;;;;;;6.18;4.40;;;;;;;-145.79;25.89;75895.94;5281211;28;20035;-68
2023/06/16 15:06:57;;;;;;;4.93;4.50;;;;;;;-145.79;25.68;75925.59;5297850;28;20144;-69
2023/06/16 15:09:29;;;;;;;7.85;6.50;;;;;;;-145.79;25.66;75946.78;5302119;28;20093;-69
2023/06/16 15:12:00;;;;;;;12.75;11.60;;;;;;;-145.79;25.76;75921.34;5302620;28;20028;-67
2023/06/16 15:14:31;;;;;;;6.22;4.35;;;;;;;-145.79;25.74;75936.19;5296395;28;20033;-68
2023/06/16 15:17:03;;;;;;;6.18;4.50;;;;;;;-145.79;25.74;75931.94;5291042;28;20062;-68
2023/06/16 15:19:34;;;;;;;4.20;3.90;;;;;;;-145.79;25.81;75925.59;5302140;28;20032;-69
2023/06/16 15:22:06;;;;;;;4.57;4.18;;;;;;;-145.79;26.30;75948.91;5300613;28;20044;-69
2023/06/16 15:24:37;;;;;;;5.55;4.25;;;;;;;-145.79;26.09;75915.00;5302014;28;20105;-69
2023/06/16 15:27:08;;;;;;;4.50;4.10;;;;;;;-145.79;25.93;75919.22;5301700;28;20021;-69
2023/06/16 15:29:40;;;;;;;6.53;5.07;;;;;;;-145.79;26.23;75925.59;5302090;28;20035;-70
2023/06/16 15:32:11;;;;;;;4.85;4.10;;;;;;;-145.79;26.02;75923.47;5301950;28;20020;-69
2023/06/16 15:34:42;;;;;;;6.00;4.53;;;;;;;-145.79;26.19;75927.72;5300592;28;20028;-69
2023/06/16 15:37:14;;;;;;;4.40;4.00;;;;;;;-145.79;26.45;75934.06;5301494;28;20071;-69
2023/06/16 15:39:45;;;;;;;4.60;4.20;;;;;;;-145.79;26.31;75940.41;5301710;28;20024;-69
2023/06/16 15:42:17;;;;;;;6.88;4.63;;;;;;;-145.79;26.02;75946.78;5300121;28;20409;-69
2023/06/16 15:44:48;;;;;;;5.93;3.83;;;;;;;-145.79;26.37;75912.88;5305949;28;20028;-69
2023/06/16 15:47:19;;;;;;;6.32;4.60;;;;;;;-145.79;26.01;75919.22;5305749;28;20039;-69
2023/06/16 15:49:51;;;;;;;136.40;124.75;;;;;;;-145.79;26.07;75936.19;5305086;28;20044;-68
2023/06/16 15:52:22;;;;;;;7.50;6.72;;;;;;;-145.79;26.67;75934.06;5305745;28;20725;-68
2023/06/16 15:54:53;;;;;;;6.43;5.72;;;;;;;-145.79;26.34;75944.66;5306282;28;20134;-69
2023/06/16 15:57:25;;;;;;;4.95;4.45;;;;;;;-145.79;26.82;75944.66;5305329;28;20016;-69
2023/06/16 15:59:56;;;;;;;4.65;3.88;;;;;;;-145.79;26.28;75948.91;5305593;28;20028;-69
2023/06/16 16:02:27;;;;;;;4.60;4.15;;;;;;;-145.79;26.73;75961.63;5304799;28;20023;-69
2023/06/16 16:04:59;;;;;;;5.63;4.38;;;;;;;-145.79;26.63;75936.19;5306177;28;20069;-71
2023/06/16 16:07:31;;;;;;;4.25;3.70;;;;;;;-145.79;26.42;75965.84;5305913;28;20012;-72
2023/06/16 16:10:03;;;;;;;5.00;4.50;;;;;;;-145.79;26.17;75944.66;5292473;28;20039;-71
2023/06/16 16:12:34;;;;;;;6.03;4.20;;;;;;;-145.79;26.96;75944.66;5285088;28;20017;-69
2023/06/16 16:15:06;;;;;;;4.75;4.35;;;;;;;-145.79;26.73;75919.22;5284361;28;20170;-68
2023/06/16 16:17:37;;;;;;;4.43;4.03;;;;;;;-145.79;26.38;75931.94;5285346;28;20103;-68
2023/06/16 16:20:09;;;;;;;6.75;4.32;;;;;;;-145.79;26.53;75912.88;5305818;28;20151;-68
2023/06/16 16:22:41;;;;;;;4.38;3.90;;;;;;;-145.79;26.63;75912.88;5305444;28;20052;-67
2023/06/16 16:25:12;;;;;;;4.60;4.10;;;;;;;-145.79;26.40;75921.34;5304755;28;20039;-67
2023/06/16 16:27:43;;;;;;;5.10;4.65;;;;;;;-145.79;27.02;75898.03;5305085;28;20103;-68
2023/06/16 16:30:17;;;;;;;5.78;4.00;;;;;;;-145.79;26.62;75910.75;5305940;28;20032;-69
2023/06/16 16:32:49;;;;;;;5.43;4.17;;;;;;;-145.79;26.14;75893.81;5304308;28;20032;-69
2023/06/16 16:35:20;;;;;;;4.65;4.25;;;;;;;-145.79;26.25;75893.81;5299335;28;20354;-68
2023/06/16 16:37:52;;;;;;;4.57;4.10;;;;;;;-145.79;26.17;75931.94;5301300;28;20119;-69
2023/06/16 16:40:25;;;;;;;4.68;4.28;;;;;;;-145.79;26.22;75917.13;5304930;28;20494;-68
2023/06/16 16:42:56;;;;;;;5.30;4.13;;;;;;;-145.79;26.64;75895.94;5304742;28;20040;-68
2023/06/16 16:45:27;;;;;;;5.05;3.92;;;;;;;-145.79;26.42;75883.22;5304528;28;20556;-66
2023/06/16 16:47:59;;;;;;;6.70;4.55;;;;;;;-145.79;26.40;75878.97;5304066;28;20146;-67
2023/06/16 16:50:30;;;;;;;5.25;4.50;;;;;;;-145.79;26.36;75893.81;5304595;28;20031;-68
2023/06/16 16:53:02;;;;;;;4.45;3.80;;;;;;;-145.79;26.50;75895.94;5304372;28;20077;-68
